Time;durP1;ratioP1;P1;durP2;ratioP2;P2;SDS_P1;SDS_P2;PMS_P1;PMS_P2;Temp;Humidity;BMP_temperature;BMP_pressure;BME280_temperature;BME280_humidity;BME280_pressure;Samples;Min_cycle;Max_cycle;Signal;HPM_P1;HPM_P2
2024/01/23 00:03:00;;;;;;;5.68;4.05;;;;;;;-0.70;100.00;99032.53;10400591;28;20058;-75
2024/01/23 00:08:03;;;;;;;6.70;4.05;;;;;;;-0.74;100.00;99042.19;10396922;28;20128;-77
2024/01/23 00:13:06;;;;;;;4.57;3.25;;;;;;;-0.76;100.00;99041.63;10364293;28;20038;-75
2024/01/23 00:18:08;;;;;;;3.35;2.13;;;;;;;-0.75;100.00;99037.84;10365455;28;20034;-74
2024/01/23 00:23:10;;;;;;;4.97;3.08;;;;;;;-0.76;100.00;99038.91;10380381;28;20042;-74
2024/01/23 00:28:13;;;;;;;6.47;4.43;;;;;;;-0.76;100.00;99040.81;10397149;28;20037;-74
2024/01/23 00:33:16;;;;;;;5.32;4.07;;;;;;;-0.74;100.00;99047.56;10397828;28;20057;-73
2024/01/23 00:38:19;;;;;;;4.95;3.60;;;;;;;-0.71;100.00;99063.22;10396641;28;20048;-73
2024/01/23 00:43:21;;;;;;;3.88;2.72;;;;;;;-0.65;100.00;99037.22;10382724;28;20049;-73
2024/01/23 00:48:23;;;;;;;5.15;3.63;;;;;;;-0.58;100.00;99047.78;10396600;28;20042;-73
2024/01/23 00:53:26;;;;;;;4.85;4.00;;;;;;;-0.56;100.00;99049.19;10396846;28;20060;-72
2024/01/23 00:58:28;;;;;;;3.90;2.95;;;;;;;-0.50;100.00;99058.16;10385122;28;20041;-73
2024/01/23 01:03:30;;;;;;;5.28;3.40;;;;;;;-0.42;100.00;99047.75;10389261;28;20390;-73
2024/01/23 01:08:33;;;;;;;4.45;3.08;;;;;;;-0.38;100.00;99046.19;10403405;28;20048;-73
2024/01/23 01:13:36;;;;;;;3.92;3.20;;;;;;;-0.34;100.00;99027.69;10405216;28;20045;-73
2024/01/23 01:18:40;;;;;;;4.40;3.40;;;;;;;-0.27;100.00;99032.88;10371027;28;20034;-74
2024/01/23 01:23:42;;;;;;;4.50;2.75;;;;;;;-0.21;100.00;99042.63;10403802;28;20038;-74
2024/01/23 01:28:44;;;;;;;3.67;3.17;;;;;;;-0.22;99.97;99035.63;10403187;28;20049;-74
2024/01/23 01:33:46;;;;;;;4.35;3.13;;;;;;;-0.17;99.25;99035.72;10387353;28;20042;-73
2024/01/23 01:38:49;;;;;;;3.38;2.88;;;;;;;-0.16;99.17;99048.13;10385612;28;20034;-74
2024/01/23 01:43:52;;;;;;;5.07;2.90;;;;;;;-0.14;98.76;99038.72;10404077;28;20030;-74
2024/01/23 01:48:54;;;;;;;4.75;3.30;;;;;;;-0.15;98.56;99041.66;10402352;28;20096;-73
2024/01/23 01:53:57;;;;;;;4.78;3.65;;;;;;;-0.10;99.33;99014.75;10402776;28;20045;-73
2024/01/23 01:58:59;;;;;;;4.40;2.65;;;;;;;-0.09;99.63;99040.66;10403074;28;20041;-72
2024/01/23 02:04:03;;;;;;;3.75;2.78;;;;;;;-0.08;99.64;99051.19;10386268;28;20061;-73
2024/01/23 02:09:06;;;;;;;2.63;2.22;;;;;;;-0.10;100.00;99031.75;10399899;28;20032;-73
2024/01/23 02:14:08;;;;;;;3.45;2.90;;;;;;;-0.12;100.00;99047.34;10402955;28;20034;-75
2024/01/23 02:19:13;;;;;;;4.20;2.42;;;;;;;-0.20;100.00;99052.34;10405634;28;20037;-74
2024/01/23 02:24:15;;;;;;;3.13;2.70;;;;;;;-0.22;100.00;99067.97;10399907;28;20041;-73
2024/01/23 02:29:18;;;;;;;3.25;2.72;;;;;;;-0.24;100.00;99062.00;10367601;28;20040;-73
2024/01/23 02:34:21;;;;;;;4.25;2.53;;;;;;;-0.19;100.00;99078.25;10398946;28;20256;-73
2024/01/23 02:39:25;;;;;;;3.50;2.22;;;;;;;-0.19;100.00;99078.25;10407217;28;20048;-74
2024/01/23 02:44:28;;;;;;;4.05;2.70;;;;;;;-0.15;100.00;99090.19;10400890;28;20050;-74
2024/01/23 02:49:32;;;;;;;3.33;2.25;;;;;;;-0.15;100.00;99087.50;10400414;28;20038;-74
2024/01/23 02:54:34;;;;;;;3.17;2.35;;;;;;;-0.13;100.00;99090.75;10399126;28;20053;-74
2024/01/23 02:59:37;;;;;;;3.88;2.88;;;;;;;-0.11;100.00;99084.03;10382581;28;20042;-73
2024/01/23 03:04:39;;;;;;;4.07;2.67;;;;;;;-0.09;100.00;99087.28;10385120;28;20049;-73
2024/01/23 03:09:42;;;;;;;4.10;2.60;;;;;;;-0.04;100.00;99089.22;10350717;28;20040;-73
2024/01/23 03:14:45;;;;;;;3.17;2.67;;;;;;;0.02;100.00;99088.25;10382745;28;20294;-74
2024/01/23 03:19:47;;;;;;;2.88;2.42;;;;;;;0.01;100.00;99105.50;10382916;28;20421;-74
2024/01/23 03:24:49;;;;;;;2.67;2.33;;;;;;;0.05;100.00;99090.44;10400877;28;20060;-74
2024/01/23 03:29:55;;;;;;;3.08;2.10;;;;;;;0.07;100.00;99096.41;10381880;28;20040;-72
2024/01/23 03:34:57;;;;;;;3.25;2.42;;;;;;;0.09;100.00;99088.06;10384476;28;20052;-74
2024/01/23 03:39:59;;;;;;;3.13;2.00;;;;;;;0.16;100.00;99091.38;10398538;28;20041;-73
2024/01/23 03:45:02;;;;;;;3.35;1.88;;;;;;;0.18;99.69;99084.69;10381656;28;20042;-74
2024/01/23 03:50:05;;;;;;;3.03;2.30;;;;;;;0.16;99.74;99097.56;10399170;28;20448;-75
2024/01/23 03:55:08;;;;;;;1.83;1.70;;;;;;;0.20;100.00;99114.91;10400212;28;20057;-74
2024/01/23 04:00:10;;;;;;;2.28;1.60;;;;;;;0.18;100.00;99100.88;10393688;28;20417;-76
2024/01/23 04:05:16;;;;;;;1.83;1.52;;;;;;;0.20;100.00;99109.53;10381825;28;20041;-77
2024/01/23 04:10:18;;;;;;;4.97;2.00;;;;;;;0.20;100.00;99097.91;10399574;28;20042;-75
2024/01/23 04:15:21;;;;;;;2.78;1.45;;;;;;;0.16;100.00;99105.66;10365462;28;20038;-76
2024/01/23 04:20:23;;;;;;;4.40;2.20;;;;;;;0.16;100.00;99107.56;10380185;28;20049;-76
2024/01/23 04:25:25;;;;;;;3.45;1.98;;;;;;;0.18;100.00;99116.22;10395405;28;20042;-77
2024/01/23 04:30:28;;;;;;;2.25;1.60;;;;;;;0.18;100.00;99117.06;10384493;28;20038;-76
2024/01/23 04:35:30;;;;;;;2.42;2.00;;;;;;;0.20;100.00;99125.69;10389404;28;20053;-76
2024/01/23 04:40:32;;;;;;;5.60;1.60;;;;;;;0.21;100.00;99121.94;10379923;28;20046;-78
2024/01/23 04:45:35;;;;;;;2.47;1.83;;;;;;;0.22;100.00;99110.06;10406802;28;20034;-77
2024/01/23 04:50:37;;;;;;;2.00;1.50;;;;;;;0.24;100.00;99118.72;10387910;28;20072;-78
2024/01/23 04:55:39;;;;;;;5.50;1.98;;;;;;;0.26;100.00;99119.28;10386175;28;20049;-77
2024/01/23 05:00:42;;;;;;;3.42;2.45;;;;;;;0.26;100.00;99113.09;10384976;28;20037;-77
2024/01/23 05:05:44;;;;;;;3.08;2.20;;;;;;;0.28;100.00;99114.47;10419863;28;20038;-75
2024/01/23 05:10:48;;;;;;;3.33;1.92;;;;;;;0.29;100.00;99113.38;10380739;28;20409;-75
2024/01/23 05:15:51;;;;;;;5.57;2.60;;;;;;;0.27;100.00;99120.91;10404378;28;20045;-76
2024/01/23 05:20:53;;;;;;;3.60;2.28;;;;;;;0.32;100.00;99116.66;10403531;28;20509;-76
2024/01/23 05:25:56;;;;;;;2.92;2.25;;;;;;;0.32;100.00;99119.34;10406333;28;20044;-76
2024/01/23 05:30:59;;;;;;;0.73;0.73;;;;;;;0.35;100.00;99116.13;10355959;28;20124;-76
2024/01/23 05:36:03;;;;;;;6.78;2.38;;;;;;;0.38;100.00;99121.06;10382989;28;20509;-76
2024/01/23 05:41:06;;;;;;;6.03;2.38;;;;;;;0.39;100.00;99118.09;10385531;28;20544;-76
2024/01/23 05:46:08;;;;;;;4.07;2.38;;;;;;;0.40;100.00;99137.81;10392687;28;20049;-76
2024/01/23 05:51:10;;;;;;;3.90;2.40;;;;;;;0.40;100.00;99132.41;10386459;28;20045;-77
2024/01/23 05:56:13;;;;;;;3.47;2.13;;;;;;;0.41;100.00;99118.66;10406034;28;20049;-75
2024/01/23 06:01:16;;;;;;;3.78;2.30;;;;;;;0.45;100.00;99106.28;10403473;28;20041;-74
2024/01/23 06:06:19;;;;;;;7.40;3.20;;;;;;;0.48;100.00;99108.47;10385138;28;20057;-78
2024/01/23 06:11:21;;;;;;;5.80;1.98;;;;;;;0.48;100.00;99121.16;10400865;28;20045;-77
2024/01/23 06:16:24;;;;;;;3.72;2.67;;;;;;;0.51;100.00;99117.94;10383751;28;20053;-77
2024/01/23 06:21:26;;;;;;;3.42;2.22;;;;;;;0.52;100.00;99130.38;10381138;28;20612;-77
2024/01/23 06:26:29;;;;;;;1.25;1.08;;;;;;;0.58;100.00;99137.47;10398559;28;20041;-77
2024/01/23 06:31:32;;;;;;;6.75;2.95;;;;;;;0.63;100.00;99161.81;10380584;28;20045;-76
2024/01/23 06:36:36;;;;;;;2.20;1.67;;;;;;;0.64;100.00;99166.16;10399683;28;20637;-77
2024/01/23 06:41:38;;;;;;;4.55;2.97;;;;;;;0.68;100.00;99169.16;10399954;28;20045;-76
2024/01/23 06:46:41;;;;;;;3.50;2.17;;;;;;;0.69;100.00;99176.19;10399637;28;20041;-77
2024/01/23 06:51:43;;;;;;;4.15;2.38;;;;;;;0.71;100.00;99183.00;10379696;28;20037;-76
2024/01/23 06:56:46;;;;;;;3.85;2.70;;;;;;;0.74;100.00;99185.19;10396926;28;20045;-76
2024/01/23 07:01:49;;;;;;;1.20;0.98;;;;;;;0.75;100.00;99184.09;10399017;28;20041;-76
2024/01/23 07:06:51;;;;;;;3.33;2.05;;;;;;;0.75;100.00;99203.00;10389473;28;20045;-77
2024/01/23 07:11:54;;;;;;;2.53;1.83;;;;;;;0.77;100.00;99198.16;10399861;28;20034;-76
2024/01/23 07:16:57;;;;;;;5.82;3.22;;;;;;;0.78;100.00;99199.78;10397859;28;20417;-77
2024/01/23 07:21:59;;;;;;;6.55;3.33;;;;;;;0.72;100.00;99203.50;10400144;28;20049;-77
2024/01/23 07:27:01;;;;;;;8.88;3.20;;;;;;;0.78;100.00;99213.28;10379407;28;20046;-78
2024/01/23 07:32:05;;;;;;;1.95;1.60;;;;;;;0.81;100.00;99230.88;10402749;28;20053;-78
2024/01/23 07:37:08;;;;;;;6.57;3.03;;;;;;;0.84;100.00;99244.69;10363733;28;20041;-78
2024/01/23 07:42:11;;;;;;;5.28;2.47;;;;;;;0.81;100.00;99253.28;10394092;28;20041;-76
2024/01/23 07:47:14;;;;;;;4.18;2.08;;;;;;;0.82;100.00;99268.41;10398804;28;20457;-76
2024/01/23 07:52:19;;;;;;;4.38;2.67;;;;;;;0.83;100.00;99274.63;10379805;28;20053;-75
2024/01/23 07:57:21;;;;;;;5.10;3.08;;;;;;;0.83;100.00;99285.44;10396232;28;20048;-76
2024/01/23 08:02:25;;;;;;;5.22;3.13;;;;;;;0.84;100.00;99285.19;10394851;28;20041;-76
2024/01/23 08:07:28;;;;;;;3.80;2.47;;;;;;;0.88;100.00;99289.03;10402860;28;20044;-76
2024/01/23 08:12:31;;;;;;;2.63;1.85;;;;;;;0.88;100.00;99293.63;10405268;28;20042;-76
2024/01/23 08:17:33;;;;;;;5.13;2.72;;;;;;;0.92;100.00;99289.34;10402988;28;20112;-81
2024/01/23 08:22:35;;;;;;;6.43;1.17;;;;;;;0.93;100.00;99288.28;10386072;28;20038;-76
2024/01/23 08:27:38;;;;;;;1.88;0.93;;;;;;;0.98;100.00;99296.44;10403832;28;20049;-74
2024/01/23 08:32:41;;;;;;;2.67;1.35;;;;;;;0.98;100.00;99282.94;10403102;28;21522;-75
2024/01/23 08:37:44;;;;;;;4.32;2.33;;;;;;;1.00;100.00;99280.78;10386560;28;20042;-75
2024/01/23 08:42:49;;;;;;;2.38;1.67;;;;;;;1.04;100.00;99290.03;10403538;28;20057;-74
2024/01/23 08:47:52;;;;;;;2.67;1.65;;;;;;;1.07;100.00;99296.81;10387963;28;20049;-74
2024/01/23 08:52:54;;;;;;;3.10;2.33;;;;;;;1.07;100.00;99303.03;10403283;28;20085;-73
2024/01/23 08:57:57;;;;;;;2.88;1.60;;;;;;;1.13;100.00;99314.72;10390421;28;20029;-73
2024/01/23 09:02:59;;;;;;;2.22;1.58;;;;;;;1.15;100.00;99316.09;10399246;28;20053;-72
2024/01/23 09:08:03;;;;;;;3.85;2.33;;;;;;;1.22;100.00;99317.81;10372453;28;20033;-73
2024/01/23 09:13:06;;;;;;;4.00;2.17;;;;;;;1.24;100.00;99323.78;10383919;28;20576;-72
2024/01/23 09:18:08;;;;;;;3.53;1.60;;;;;;;1.24;100.00;99330.00;10402151;28;20041;-72
2024/01/23 09:23:11;;;;;;;1.98;1.77;;;;;;;1.26;100.00;99332.44;10403288;28;20038;-73
2024/01/23 09:28:13;;;;;;;1.65;1.55;;;;;;;1.24;100.00;99327.28;10384713;28;20390;-74
2024/01/23 09:33:16;;;;;;;2.45;1.90;;;;;;;1.25;100.00;99325.41;10390397;28;20038;-72
2024/01/23 09:38:18;;;;;;;3.35;1.15;;;;;;;1.28;100.00;99317.59;10386774;28;20536;-71
2024/01/23 09:43:21;;;;;;;2.25;1.23;;;;;;;1.30;100.00;99334.38;10400764;28;20053;-72
2024/01/23 09:48:23;;;;;;;2.60;1.27;;;;;;;1.34;100.00;99342.78;10384332;28;20044;-74
2024/01/23 09:53:26;;;;;;;5.30;2.05;;;;;;;1.34;100.00;99346.31;10401157;28;20061;-74
2024/01/23 09:58:28;;;;;;;2.72;1.38;;;;;;;1.36;100.00;99352.28;10367377;28;20045;-73
2024/01/23 10:03:34;;;;;;;2.88;1.63;;;;;;;1.38;100.00;99363.66;10384893;28;20053;-72
2024/01/23 10:08:37;;;;;;;1.55;1.38;;;;;;;1.41;100.00;99360.47;10399745;28;20038;-76
2024/01/23 10:13:42;;;;;;;2.33;1.65;;;;;;;1.37;100.00;99359.31;10399175;28;20042;-74
2024/01/23 10:18:49;;;;;;;3.95;1.80;;;;;;;1.36;100.00;99354.97;10378619;28;20072;-78
2024/01/23 10:23:52;;;;;;;2.75;1.75;;;;;;;1.37;100.00;99356.59;10403208;28;20524;-82
2024/01/23 10:28:55;;;;;;;3.42;1.30;;;;;;;1.42;100.00;99375.59;10363498;28;20120;-73
2024/01/23 10:34:00;;;;;;;2.20;1.13;;;;;;;1.43;100.00;99361.03;10383197;28;20048;-74
2024/01/23 10:39:03;;;;;;;2.35;2.00;;;;;;;1.46;100.00;99363.22;10397379;28;20041;-73
2024/01/23 10:44:05;;;;;;;4.47;1.42;;;;;;;1.45;100.00;99361.59;10397552;28;20133;-71
2024/01/23 10:49:08;;;;;;;2.72;1.30;;;;;;;1.47;100.00;99375.66;10397969;28;20033;-71
2024/01/23 10:54:17;;;;;;;2.10;1.58;;;;;;;1.50;100.00;99377.84;10397944;28;20054;-71
2024/01/23 10:59:31;;;;;;;1.02;1.00;;;;;;;1.49;100.00;99378.09;10398101;28;20042;-71
2024/01/23 11:04:34;;;;;;;5.13;2.05;;;;;;;1.48;100.00;99387.28;10398522;28;20038;-72
2024/01/23 11:09:41;;;;;;;0.32;0.32;;;;;;;1.51;100.00;99379.47;10382002;28;20117;-70
2024/01/23 11:14:49;;;;;;;0.95;0.85;;;;;;;1.50;100.00;99380.56;10400230;28;20041;-69
2024/01/23 11:20:08;;;;;;;0.93;0.90;;;;;;;1.50;100.00;99379.75;10384116;28;20053;-70
2024/01/23 11:25:14;;;;;;;2.80;1.63;;;;;;;1.55;100.00;99408.72;10382143;28;20052;-69
2024/01/23 11:30:17;;;;;;;2.20;1.48;;;;;;;1.52;100.00;99402.75;10378332;28;20041;-70
2024/01/23 11:35:19;;;;;;;0.60;0.55;;;;;;;1.53;100.00;99408.97;10400425;28;20041;-70
2024/01/23 11:40:34;;;;;;;0.82;0.80;;;;;;;1.54;100.00;99410.59;10370758;28;20049;-69
2024/01/23 11:45:37;;;;;;;2.00;0.95;;;;;;;1.54;100.00;99418.72;10383033;28;20046;-69
2024/01/23 11:50:39;;;;;;;5.13;1.70;;;;;;;1.51;100.00;99420.03;10373352;28;20053;-69
2024/01/23 11:55:43;;;;;;;3.33;1.52;;;;;;;1.54;100.00;99426.00;10353304;28;20062;-70
2024/01/23 12:00:45;;;;;;;2.58;1.10;;;;;;;1.61;100.00;99437.47;10357740;28;20041;-70
2024/01/23 12:05:48;;;;;;;7.00;1.65;;;;;;;1.61;100.00;99437.47;10352905;28;20084;-70
2024/01/23 12:10:50;;;;;;;0.68;0.68;;;;;;;1.61;100.00;99437.47;10349656;28;20038;-69
2024/01/23 12:15:52;;;;;;;1.90;0.82;;;;;;;1.60;100.00;99431.25;10348437;28;20417;-70
2024/01/23 12:20:57;;;;;;;3.20;1.30;;;;;;;1.63;100.00;99438.03;10357095;28;20186;-69
2024/01/23 12:26:00;;;;;;;2.72;1.92;;;;;;;1.60;100.00;99439.34;10358913;28;20047;-69
2024/01/23 12:31:10;;;;;;;3.13;1.60;;;;;;;1.61;100.00;99445.56;10358039;28;20034;-69
2024/01/23 12:36:16;;;;;;;3.72;1.23;;;;;;;1.62;100.00;99450.72;10357262;28;20053;-70
2024/01/23 12:41:18;;;;;;;4.80;1.60;;;;;;;1.62;100.00;99453.44;10360788;28;20533;-69
2024/01/23 12:46:21;;;;;;;4.75;2.25;;;;;;;1.61;100.00;99456.38;10340585;28;20065;-69
2024/01/23 12:51:24;;;;;;;2.35;1.63;;;;;;;1.58;100.00;99457.72;10358303;28;20720;-70
2024/01/23 12:56:27;;;;;;;4.00;1.60;;;;;;;1.57;100.00;99460.66;10412992;28;20050;-70
2024/01/23 13:01:29;;;;;;;2.90;1.33;;;;;;;1.53;100.00;99468.44;10405241;28;20049;-70
2024/01/23 13:06:31;;;;;;;6.90;1.85;;;;;;;1.50;100.00;99467.06;10388526;28;20049;-70
2024/01/23 13:11:34;;;;;;;1.65;1.15;;;;;;;1.50;100.00;99461.66;10410133;28;20038;-69
2024/01/23 13:16:36;;;;;;;2.20;1.27;;;;;;;1.49;100.00;99467.31;10391045;28;20042;-69
2024/01/23 13:21:39;;;;;;;3.58;1.20;;;;;;;1.46;100.00;99479.44;10406742;28;20037;-69
2024/01/23 13:26:41;;;;;;;2.78;1.65;;;;;;;1.47;100.00;99480.25;10387772;28;20041;-71
2024/01/23 13:31:45;;;;;;;2.38;1.40;;;;;;;1.46;100.00;99484.84;10406062;28;20049;-70
2024/01/23 13:36:47;;;;;;;1.85;1.20;;;;;;;1.48;100.00;99481.91;10387402;28;20050;-69
2024/01/23 13:41:49;;;;;;;5.03;1.92;;;;;;;1.47;100.00;99478.38;10413593;28;20046;-70
2024/01/23 13:46:52;;;;;;;5.68;1.38;;;;;;;1.47;100.00;99488.38;10394305;28;20041;-70
2024/01/23 13:51:54;;;;;;;5.15;1.67;;;;;;;1.51;100.00;99497.63;10387843;28;20045;-70
2024/01/23 13:56:56;;;;;;;4.07;1.75;;;;;;;1.55;100.00;99495.22;10398115;28;20057;-70
2024/01/23 14:02:00;;;;;;;4.22;1.15;;;;;;;1.56;100.00;99510.38;10370767;28;20045;-70
2024/01/23 14:07:04;;;;;;;2.47;1.08;;;;;;;1.52;100.00;99505.47;10369709;28;20048;-70
2024/01/23 14:12:07;;;;;;;6.65;1.98;;;;;;;1.47;100.00;99515.41;10387896;28;20038;-70
2024/01/23 14:17:09;;;;;;;2.53;1.42;;;;;;;1.46;100.00;99501.06;10369095;28;20049;-72
2024/01/23 14:22:13;;;;;;;4.95;2.15;;;;;;;1.44;100.00;99513.22;10401614;28;20417;-68
2024/01/23 14:27:16;;;;;;;9.63;1.17;;;;;;;1.42;100.00;99516.16;10400736;28;20042;-68
2024/01/23 14:32:18;;;;;;;2.55;1.45;;;;;;;1.41;100.00;99519.94;10397952;28;20045;-69
2024/01/23 14:37:20;;;;;;;4.28;1.55;;;;;;;1.42;100.00;99510.75;10399633;28;20038;-72
2024/01/23 14:42:23;;;;;;;2.40;1.58;;;;;;;1.41;100.00;99522.63;10388691;28;20856;-74
2024/01/23 14:47:25;;;;;;;6.38;2.05;;;;;;;1.43;100.00;99523.19;10412423;28;20045;-73
2024/01/23 14:52:28;;;;;;;1.35;1.25;;;;;;;1.42;100.00;99521.56;10400131;28;20053;-72
2024/01/23 14:57:30;;;;;;;4.15;1.35;;;;;;;1.41;100.00;99535.34;10366610;28;20918;-74
2024/01/23 15:02:32;;;;;;;3.13;1.65;;;;;;;1.41;100.00;99525.34;10382978;28;20046;-73
2024/01/23 15:07:35;;;;;;;4.55;1.40;;;;;;;1.42;100.00;99531.56;10358843;28;20037;-73
2024/01/23 15:12:37;;;;;;;3.15;1.55;;;;;;;1.39;100.00;99530.19;10362815;28;20034;-72
2024/01/23 15:17:39;;;;;;;2.47;1.35;;;;;;;1.37;100.00;99540.38;10360701;28;20041;-71
2024/01/23 15:22:42;;;;;;;5.80;2.00;;;;;;;1.37;100.00;99540.38;10398501;28;20041;-71
2024/01/23 15:27:44;;;;;;;3.95;1.65;;;;;;;1.38;100.00;99541.22;10365398;28;20038;-71
2024/01/23 15:32:47;;;;;;;3.63;1.65;;;;;;;1.38;100.00;99546.63;10399464;28;20030;-73
2024/01/23 15:37:49;;;;;;;4.00;1.63;;;;;;;1.41;100.00;99557.78;10398251;28;20049;-75
2024/01/23 15:42:51;;;;;;;2.05;0.90;;;;;;;1.44;100.00;99551.88;10374764;28;20050;-74
2024/01/23 15:47:54;;;;;;;3.08;1.05;;;;;;;1.47;100.00;99564.06;10396507;28;20048;-73
2024/01/23 15:52:56;;;;;;;2.25;0.95;;;;;;;1.47;100.00;99564.88;10356307;28;20037;-73
2024/01/23 15:57:59;;;;;;;5.82;1.63;;;;;;;1.54;100.00;99553.06;10367308;28;20049;-77
2024/01/23 16:03:01;;;;;;;0.88;0.88;;;;;;;1.55;100.00;99562.81;10366595;28;20042;-80
2024/01/23 16:08:04;;;;;;;1.80;1.40;;;;;;;1.56;100.00;99569.84;10379506;28;20498;-83
2024/01/23 16:13:07;;;;;;;2.72;1.20;;;;;;;1.53;100.00;99554.94;10354471;28;20046;-71
2024/01/23 16:18:10;;;;;;;1.38;1.27;;;;;;;1.52;100.00;99562.25;10390120;28;20529;-69
2024/01/23 16:23:13;;;;;;;4.03;1.20;;;;;;;1.55;100.00;99562.81;10362829;28;20041;-73
2024/01/23 16:28:15;;;;;;;2.80;1.20;;;;;;;1.55;100.00;99562.81;10371222;28;20050;-73
2024/01/23 16:33:17;;;;;;;1.88;0.90;;;;;;;1.54;100.00;99562.00;10404756;28;20038;-70
2024/01/23 16:38:19;;;;;;;0.50;0.50;;;;;;;1.54;100.00;99563.88;10386286;28;20034;-73
2024/01/23 16:43:22;;;;;;;7.47;1.98;;;;;;;1.58;100.00;99573.97;10368119;28;20065;-75
2024/01/23 16:48:24;;;;;;;1.75;1.30;;;;;;;1.60;100.00;99571.84;10353726;28;20128;-70
2024/01/23 16:53:26;;;;;;;3.85;1.40;;;;;;;1.63;100.00;99565.09;10395355;28;20057;-70
2024/01/23 16:58:29;;;;;;;7.55;1.50;;;;;;;1.64;100.00;99581.06;10363479;28;20037;-74
2024/01/23 17:03:32;;;;;;;0.52;0.52;;;;;;;1.65;100.00;99581.91;10400737;28;20052;-72
2024/01/23 17:08:35;;;;;;;4.28;1.67;;;;;;;1.66;100.00;99588.94;10397165;28;20042;-75
2024/01/23 17:13:38;;;;;;;1.55;1.42;;;;;;;1.68;100.00;99600.31;10369592;28;20037;-71
2024/01/23 17:18:41;;;;;;;1.15;0.75;;;;;;;1.72;100.00;99588.75;10367893;28;20042;-77
2024/01/23 17:23:43;;;;;;;3.10;1.10;;;;;;;1.74;99.61;99594.75;10386499;28;20038;-76
2024/01/23 17:28:46;;;;;;;1.45;1.05;;;;;;;1.75;99.89;99603.69;10404664;28;20037;-75
2024/01/23 17:33:48;;;;;;;3.35;1.27;;;;;;;1.71;99.45;99606.03;10385653;28;20532;-77
2024/01/23 17:38:52;;;;;;;1.33;0.82;;;;;;;1.71;99.37;99611.44;10403018;28;20520;-78
2024/01/23 17:43:55;;;;;;;1.27;0.88;;;;;;;1.75;99.14;99618.03;10401060;28;20524;-77
2024/01/23 17:48:57;;;;;;;1.92;0.45;;;;;;;1.72;99.10;99620.38;10379423;28;20528;-74
2024/01/23 17:54:02;;;;;;;2.83;0.90;;;;;;;1.71;98.85;99632.28;10398508;28;20056;-76
2024/01/23 17:59:04;;;;;;;8.15;1.95;;;;;;;1.70;99.01;99615.22;10398291;28;20049;-74
2024/01/23 18:04:07;;;;;;;1.08;0.65;;;;;;;1.70;99.96;99609.81;10397981;28;20042;-82
2024/01/23 18:09:09;;;;;;;1.60;0.90;;;;;;;1.71;99.72;99614.16;10388408;28;20539;-76
2024/01/23 18:14:12;;;;;;;8.30;2.40;;;;;;;1.69;99.80;99623.59;10358161;28;20034;-73
2024/01/23 18:19:14;;;;;;;3.75;1.45;;;;;;;1.67;100.00;99612.22;10370224;28;20046;-73
2024/01/23 18:24:17;;;;;;;7.53;2.60;;;;;;;1.66;100.00;99624.09;10381826;28;20045;-73
2024/01/23 18:29:19;;;;;;;9.02;2.40;;;;;;;1.65;100.00;99615.16;10349013;28;20053;-71
2024/01/23 18:34:22;;;;;;;6.50;1.90;;;;;;;1.62;100.00;99631.06;10390604;28;20050;-75
2024/01/23 18:39:26;;;;;;;5.75;2.17;;;;;;;1.62;100.00;99631.06;10375047;28;20560;-73
2024/01/23 18:44:29;;;;;;;8.65;2.28;;;;;;;1.63;100.00;99630.81;10328178;28;20072;-75
2024/01/23 18:49:32;;;;;;;6.68;2.10;;;;;;;1.61;100.00;99629.44;10389587;28;20042;-73
2024/01/23 18:54:35;;;;;;;3.92;1.88;;;;;;;1.64;100.00;99632.44;10398705;28;20049;-68
2024/01/23 18:59:37;;;;;;;4.05;1.83;;;;;;;1.64;100.00;99627.03;10394576;28;20434;-71
2024/01/23 19:04:40;;;;;;;6.93;1.90;;;;;;;1.64;100.00;99639.75;10403424;28;20048;-70
2024/01/23 19:09:42;;;;;;;7.38;2.20;;;;;;;1.67;100.00;99636.53;10363577;28;20045;-73
2024/01/23 19:14:47;;;;;;;4.95;1.70;;;;;;;1.63;100.00;99633.53;10378358;28;20052;-77
2024/01/23 19:19:49;;;;;;;4.95;1.73;;;;;;;1.75;100.00;99630.72;10360293;28;20049;-74
2024/01/23 19:24:53;;;;;;;4.82;1.75;;;;;;;1.70;100.00;99628.75;10378939;28;20042;-73
2024/01/23 19:29:55;;;;;;;5.57;2.00;;;;;;;1.74;100.00;99632.63;10370997;28;20060;-72
2024/01/23 19:34:59;;;;;;;2.30;1.58;;;;;;;1.70;100.00;99612.53;10398530;28;20120;-75
2024/01/23 19:40:01;;;;;;;4.85;1.60;;;;;;;1.74;100.00;99624.50;10357948;28;20037;-74
2024/01/23 19:45:05;;;;;;;6.45;1.85;;;;;;;1.70;100.00;99614.41;10368536;28;20053;-75
2024/01/23 19:50:10;;;;;;;4.95;2.10;;;;;;;1.69;100.00;99621.69;10381568;28;20045;-76
2024/01/23 19:55:12;;;;;;;6.00;1.75;;;;;;;1.69;100.00;99619.00;10382149;28;20053;-74
2024/01/23 20:00:16;;;;;;;4.40;1.55;;;;;;;1.71;100.00;99616.03;10344639;28;20505;-74
2024/01/23 20:05:18;;;;;;;6.05;1.60;;;;;;;1.68;100.00;99627.38;10397011;28;20041;-74
2024/01/23 20:10:22;;;;;;;6.15;1.55;;;;;;;1.64;100.00;99620.81;10372289;28;20045;-75
2024/01/23 20:15:25;;;;;;;4.15;2.10;;;;;;;1.65;100.00;99608.94;10377228;28;20034;-70
2024/01/23 20:20:27;;;;;;;5.55;1.90;;;;;;;1.64;100.00;99615.41;10382251;28;20459;-72
2024/01/23 20:25:30;;;;;;;7.03;1.80;;;;;;;1.70;100.00;99617.94;10384277;28;20046;-71
2024/01/23 20:30:34;;;;;;;7.15;2.33;;;;;;;1.67;100.00;99602.22;10378967;28;20049;-71
2024/01/23 20:35:36;;;;;;;6.72;1.70;;;;;;;1.64;100.00;99585.66;10353846;28;20045;-72
2024/01/23 20:40:38;;;;;;;5.05;2.28;;;;;;;1.66;100.00;99597.88;10388626;28;20041;-72
2024/01/23 20:45:41;;;;;;;6.68;1.83;;;;;;;1.64;100.00;99593.78;10394517;28;20048;-73
2024/01/23 20:50:43;;;;;;;3.72;2.00;;;;;;;1.61;100.00;99603.22;10390772;28;20042;-70
2024/01/23 20:55:45;;;;;;;2.92;1.63;;;;;;;1.62;100.00;99604.03;10375846;28;20547;-69
2024/01/23 21:00:48;;;;;;;6.55;1.90;;;;;;;1.63;100.00;99587.56;10390938;28;20042;-70
2024/01/23 21:05:51;;;;;;;2.67;1.40;;;;;;;1.62;100.00;99585.91;10389065;28;20421;-70
2024/01/23 21:10:54;;;;;;;4.90;1.25;;;;;;;1.62;100.00;99585.09;10398582;28;20032;-71
2024/01/23 21:15:56;;;;;;;3.03;1.58;;;;;;;1.60;100.00;99584.53;10369099;28;20042;-71
2024/01/23 21:20:59;;;;;;;2.78;1.50;;;;;;;1.61;100.00;99578.06;10401723;28;20049;-69
2024/01/23 21:26:03;;;;;;;4.55;1.60;;;;;;;1.56;100.00;99570.66;10381011;28;20039;-69
2024/01/23 21:31:05;;;;;;;3.90;1.40;;;;;;;1.57;100.00;99569.63;10401157;28;20729;-70
2024/01/23 21:36:07;;;;;;;3.10;1.50;;;;;;;1.58;100.00;99579.38;10400254;28;20038;-69
2024/01/23 21:41:10;;;;;;;3.20;1.60;;;;;;;1.50;100.00;99572.50;10385614;28;20460;-71
2024/01/23 21:46:13;;;;;;;5.97;1.70;;;;;;;1.51;100.00;99571.41;10370314;28;20048;-72
2024/01/23 21:51:16;;;;;;;5.25;1.58;;;;;;;1.56;100.00;99572.56;10386331;28;20505;-71
2024/01/23 21:56:18;;;;;;;4.18;1.30;;;;;;;1.52;100.00;99570.34;10373315;28;20057;-70
2024/01/23 22:01:21;;;;;;;4.70;1.20;;;;;;;1.55;100.00;99566.31;10379030;28;20536;-70
2024/01/23 22:06:23;;;;;;;4.60;1.67;;;;;;;1.54;100.00;99564.69;10382772;28;20422;-70
2024/01/23 22:11:26;;;;;;;2.85;1.20;;;;;;;1.51;100.00;99560.59;10340331;28;20034;-71
2024/01/23 22:16:28;;;;;;;3.50;1.52;;;;;;;1.52;100.00;99559.53;10402266;28;20049;-71
2024/01/23 22:21:32;;;;;;;2.63;1.60;;;;;;;1.55;100.00;99562.81;10358615;28;20053;-72
2024/01/23 22:26:34;;;;;;;3.80;1.10;;;;;;;1.57;100.00;99555.28;10392309;28;20049;-72
2024/01/23 22:31:37;;;;;;;2.50;1.23;;;;;;;1.60;99.91;99552.09;10348858;28;20049;-71
2024/01/23 22:36:39;;;;;;;2.83;1.30;;;;;;;1.54;99.68;99547.66;10399814;28;20540;-71
2024/01/23 22:41:42;;;;;;;3.10;1.42;;;;;;;1.55;99.83;99549.28;10379542;28;20513;-72
2024/01/23 22:46:44;;;;;;;3.20;1.13;;;;;;;1.55;99.62;99543.88;10362166;28;20229;-71
2024/01/23 22:51:47;;;;;;;1.45;0.90;;;;;;;1.60;99.89;99550.19;10403020;28;20038;-71
2024/01/23 22:56:49;;;;;;;3.67;1.27;;;;;;;1.61;98.96;99542.91;10426617;28;20037;-71
2024/01/23 23:01:52;;;;;;;3.35;1.48;;;;;;;1.59;98.74;99545.03;10399720;28;20049;-70
2024/01/23 23:06:56;;;;;;;1.92;1.20;;;;;;;1.61;98.49;99551.03;10404367;28;20336;-71
2024/01/23 23:11:59;;;;;;;4.60;1.48;;;;;;;1.63;98.82;99538.06;10387408;28;20042;-71
2024/01/23 23:17:01;;;;;;;2.72;1.20;;;;;;;1.61;98.27;99545.63;10364785;28;20125;-71
2024/01/23 23:22:04;;;;;;;3.10;1.20;;;;;;;1.61;98.83;99532.09;10382968;28;20038;-71
2024/01/23 23:27:06;;;;;;;2.75;1.20;;;;;;;1.62;98.47;99522.91;10393111;28;20049;-71